aviador You're here:

ETNT Decoded Metar

WITTMUNDHAFEN in GERMANY
Report Time2017-12-16 10:20:00
UTC Time2017-12-16 11:03:15
Flight Rules vfr VFR
Wind240° at 04 kt
W.Decomp.*RWY 26: 3.7 kt HW 1.4 kt LCW
W.Rank240° ranks 3
Current wind is below 240° avg. (8.5)
Visibility9999 m
Phenomena:Recent thunderstorm
Clouds:Scattered CB 022 Hf
Expected CloudBase > 800 ft AGL from Temp-Dew spread
CeilingNone
Temp03°C (ISA -12)
Dew Point01°C (87% RH)
AAT-0.3°C
QNH1006 hPa
Density Alt-1,079 ft
Elevation39 ft
Report Wrong Elevation
Raw Report
ETNT 161020Z 24004KT 9999 SCT022CB 03/01 Q1006 RETS BLU+=

Extra information for ETNT:More info

Metar Taf Metar & Taf Last 4 Metars F.Rules Stats Wind Profile Meteogram Temp Stats Airport Information Weather charts Add Link Nearby VenuesMetar ALERT Operation Metar Decoded Social comments